createdAt,value
2023-03-27T00:01:34.094Z,100283.41
2023-03-27T00:04:02.085Z,100290.00
2023-03-27T00:06:29.985Z,100296.53
2023-03-27T00:08:58.258Z,100292.88
2023-03-27T00:11:26.210Z,100298.63
2023-03-27T00:13:55.467Z,100308.31
2023-03-27T00:16:25.333Z,100311.81
2023-03-27T00:18:54.310Z,100317.88
2023-03-27T00:21:23.045Z,100309.88
2023-03-27T00:23:51.340Z,100319.59
2023-03-27T00:26:20.046Z,100323.19
2023-03-27T00:28:47.983Z,100326.91
2023-03-27T00:31:17.917Z,100323.94
2023-03-27T00:33:45.955Z,100323.31
2023-03-27T00:36:15.276Z,100333.72
2023-03-27T00:38:45.755Z,100342.34
2023-03-27T00:41:13.862Z,100337.53
2023-03-27T00:43:44.749Z,100351.78
2023-03-27T00:46:31.652Z,100348.06
2023-03-27T00:49:02.718Z,100344.38
2023-03-27T00:51:31.720Z,100355.31
2023-03-27T00:54:00.909Z,100362.53
2023-03-27T00:56:29.073Z,100371.66
2023-03-27T00:59:01.778Z,100366.66
2023-03-27T01:01:32.397Z,100366.66
2023-03-27T01:04:03.367Z,100373.31
2023-03-27T01:06:32.517Z,100371.50
2023-03-27T01:09:00.671Z,100377.75
2023-03-27T01:11:40.045Z,100383.03
2023-03-27T01:14:16.515Z,100382.69
2023-03-27T01:17:00.255Z,100385.56
2023-03-27T01:19:56.059Z,100390.06
2023-03-27T01:23:06.200Z,100392.94
2023-03-27T01:26:03.176Z,100410.72
2023-03-27T01:28:43.365Z,100422.88
2023-03-27T01:31:31.851Z,100419.22
2023-03-27T01:34:36.731Z,100417.22
2023-03-27T01:37:30.819Z,100427.06
2023-03-27T01:40:02.000Z,100426.16
2023-03-27T01:42:34.571Z,100434.25
2023-03-27T01:45:07.429Z,100432.09
2023-03-27T01:47:43.970Z,100421.00
2023-03-27T01:50:20.914Z,100423.66
2023-03-27T01:52:55.098Z,100433.22
2023-03-27T01:55:29.190Z,100434.78
2023-03-27T01:58:03.263Z,100435.41
2023-03-27T02:00:51.711Z,100447.00
2023-03-27T02:03:27.062Z,100447.59
2023-03-27T02:05:59.183Z,100454.03
2023-03-27T02:08:33.319Z,100451.56
2023-03-27T02:11:14.380Z,100458.69
2023-03-27T02:13:47.552Z,100466.22
2023-03-27T02:16:21.070Z,100466.81
2023-03-27T02:18:56.779Z,100467.00
2023-03-27T02:21:25.138Z,100470.81
2023-03-27T02:23:53.628Z,100476.53
2023-03-27T02:26:23.279Z,100478.31
2023-03-27T02:29:22.014Z,100477.72
2023-03-27T02:32:00.340Z,100482.03
2023-03-27T02:34:50.518Z,100497.19
2023-03-27T02:37:32.038Z,100510.47
2023-03-27T02:40:40.341Z,100507.28
2023-03-27T02:43:38.373Z,100516.59
2023-03-27T02:46:17.253Z,100516.09
2023-03-27T02:48:48.751Z,100527.47
2023-03-27T02:51:22.203Z,100527.41
2023-03-27T02:53:55.403Z,100547.31
2023-03-27T02:56:26.267Z,100549.81
2023-03-27T02:59:00.582Z,100539.75
2023-03-27T03:01:46.516Z,100551.91
2023-03-27T03:04:24.981Z,100555.41
2023-03-27T03:07:11.448Z,100555.81
2023-03-27T03:09:40.713Z,100563.19
2023-03-27T03:12:10.111Z,100558.34
2023-03-27T03:14:47.729Z,100569.56
2023-03-27T03:17:16.808Z,100573.91
2023-03-27T03:19:46.685Z,100575.22
2023-03-27T03:22:14.753Z,100575.31
2023-03-27T03:24:43.541Z,100579.56
2023-03-27T03:27:14.798Z,100590.44
2023-03-27T03:29:57.926Z,100593.13
2023-03-27T03:32:30.452Z,100594.75
2023-03-27T03:35:01.648Z,100596.84
2023-03-27T03:37:38.558Z,100611.56
2023-03-27T03:40:11.829Z,100616.69
2023-03-27T03:42:46.373Z,100619.41
2023-03-27T03:45:16.880Z,100626.53
2023-03-27T03:47:46.133Z,100622.25
2023-03-27T03:50:14.908Z,100635.94
2023-03-27T03:52:43.333Z,100629.19
2023-03-27T03:55:12.150Z,100632.16
2023-03-27T03:57:41.871Z,100637.47
2023-03-27T04:00:18.746Z,100647.91
2023-03-27T04:02:53.692Z,100647.19
2023-03-27T04:05:22.537Z,100642.19
2023-03-27T04:07:56.527Z,100655.16
2023-03-27T04:10:33.891Z,100643.97
2023-03-27T04:13:06.702Z,100651.56
2023-03-27T04:15:40.354Z,100657.72
2023-03-27T04:18:19.729Z,100666.06
2023-03-27T04:20:49.833Z,100669.41
2023-03-27T04:23:20.243Z,100668.66
2023-03-27T04:25:48.959Z,100671.13
2023-03-27T04:28:22.842Z,100677.72
2023-03-27T04:31:06.480Z,100687.75
2023-03-27T04:34:03.633Z,100686.91
2023-03-27T04:36:50.250Z,100690.53
2023-03-27T04:39:23.439Z,100694.63
2023-03-27T04:41:51.533Z,100687.38
2023-03-27T04:44:19.870Z,100689.47
2023-03-27T04:46:50.010Z,100684.88
2023-03-27T04:49:19.174Z,100691.13
2023-03-27T04:52:08.896Z,100692.03
2023-03-27T04:54:36.978Z,100701.00
2023-03-27T04:57:05.649Z,100705.84
2023-03-27T04:59:33.660Z,100717.28
2023-03-27T05:02:23.182Z,100723.31
2023-03-27T05:05:02.309Z,100733.59
2023-03-27T05:07:36.309Z,100732.56
2023-03-27T05:10:07.111Z,100737.69
2023-03-27T05:12:35.751Z,100738.00
2023-03-27T05:15:06.346Z,100747.16
2023-03-27T05:17:44.007Z,100745.38
2023-03-27T05:20:14.745Z,100752.44
2023-03-27T05:22:43.907Z,100762.06
2023-03-27T05:25:29.440Z,100755.97
2023-03-27T05:27:58.360Z,100764.63
2023-03-27T05:30:30.866Z,100760.13
2023-03-27T05:33:21.867Z,100766.56
2023-03-27T05:35:52.581Z,100772.78
2023-03-27T05:38:22.710Z,100769.97
2023-03-27T05:40:56.609Z,100771.91
2023-03-27T05:43:29.613Z,100776.03
2023-03-27T05:45:57.570Z,100782.31
2023-03-27T05:48:27.825Z,100783.59
2023-03-27T05:51:00.197Z,100788.63
2023-03-27T05:53:28.995Z,100798.81
2023-03-27T05:56:18.857Z,100807.91
2023-03-27T05:58:55.711Z,100802.91
2023-03-27T06:01:25.847Z,100808.72
2023-03-27T06:03:57.841Z,100805.91
2023-03-27T06:06:30.371Z,100814.69
2023-03-27T06:09:00.256Z,100817.00
2023-03-27T06:11:29.371Z,100824.28
2023-03-27T06:13:58.898Z,100827.41
2023-03-27T06:16:41.489Z,100836.16
2023-03-27T06:19:23.643Z,100833.78
2023-03-27T06:21:52.997Z,100839.00
2023-03-27T06:24:20.865Z,100844.50
2023-03-27T06:26:48.899Z,100847.22
2023-03-27T06:29:16.969Z,100851.63
2023-03-27T06:31:48.593Z,100847.44
2023-03-27T06:34:26.261Z,100852.03
2023-03-27T06:37:03.614Z,100840.25
2023-03-27T06:39:37.576Z,100846.94
2023-03-27T06:42:05.549Z,100858.75
2023-03-27T06:44:45.529Z,100842.16
2023-03-27T06:47:20.373Z,100856.09
2023-03-27T06:50:19.626Z,100853.09
2023-03-27T06:52:48.874Z,100870.22
2023-03-27T06:55:37.138Z,100872.69
2023-03-27T06:58:05.272Z,100867.91
2023-03-27T07:00:35.340Z,100880.69
2023-03-27T07:03:23.980Z,100881.81
2023-03-27T07:06:12.224Z,100877.28
2023-03-27T07:08:49.317Z,100878.03
2023-03-27T07:11:18.262Z,100885.44
2023-03-27T07:13:55.646Z,100886.66
2023-03-27T07:16:28.017Z,100893.19
2023-03-27T07:19:00.869Z,100895.31
2023-03-27T07:21:31.706Z,100890.44
2023-03-27T07:24:00.818Z,100891.78
2023-03-27T07:26:34.037Z,100899.19
2023-03-27T07:29:03.922Z,100897.41
2023-03-27T07:31:54.693Z,100901.59
2023-03-27T07:34:20.855Z,100893.84
2023-03-27T07:37:11.198Z,100905.13
2023-03-27T07:39:47.218Z,100896.13
2023-03-27T07:42:16.322Z,100891.16
2023-03-27T07:44:58.663Z,100900.59
2023-03-27T07:47:27.134Z,100888.75
2023-03-27T07:49:58.408Z,100900.03
2023-03-27T07:52:29.509Z,100908.53
2023-03-27T07:55:00.012Z,100916.59
2023-03-27T07:57:55.043Z,100904.56
2023-03-27T08:00:27.911Z,100903.25
2023-03-27T08:03:07.906Z,100908.25
2023-03-27T08:05:36.390Z,100903.63
2023-03-27T08:08:12.470Z,100904.28
2023-03-27T08:10:52.368Z,100903.06
2023-03-27T08:13:20.455Z,100910.13
2023-03-27T08:15:48.530Z,100904.09
2023-03-27T08:18:23.078Z,100910.44
2023-03-27T08:20:57.175Z,100908.22
2023-03-27T08:23:28.104Z,100905.88
2023-03-27T08:26:15.454Z,100898.09
2023-03-27T08:28:57.377Z,100905.63
2023-03-27T08:31:30.735Z,100898.84
2023-03-27T08:34:04.548Z,100903.00
2023-03-27T08:36:45.902Z,100899.91
2023-03-27T08:39:16.963Z,100911.75
2023-03-27T08:42:03.839Z,100921.13
2023-03-27T08:44:38.428Z,100929.53
2023-03-27T08:47:18.151Z,100946.63
2023-03-27T08:49:59.719Z,100930.09
2023-03-27T08:52:34.462Z,100931.44
2023-03-27T08:55:15.326Z,100949.56
2023-03-27T08:57:51.748Z,100948.47
2023-03-27T09:00:27.353Z,100935.41
2023-03-27T09:03:16.848Z,100947.19
2023-03-27T09:05:50.247Z,100956.53
2023-03-27T09:08:35.752Z,100966.50
2023-03-27T09:11:14.578Z,100952.97
2023-03-27T09:13:53.460Z,100955.38
2023-03-27T09:16:29.407Z,100943.53
2023-03-27T09:19:04.912Z,100961.28
2023-03-27T09:21:39.904Z,100950.13
2023-03-27T09:24:16.767Z,100941.00
2023-03-27T09:27:16.522Z,100940.78
2023-03-27T09:30:05.025Z,100949.56
2023-03-27T09:32:46.283Z,100945.16
2023-03-27T09:35:15.350Z,100948.78
2023-03-27T09:37:43.672Z,100958.03
2023-03-27T09:40:23.466Z,100958.81
2023-03-27T09:42:55.312Z,100958.78
2023-03-27T09:45:24.533Z,100949.63
2023-03-27T09:48:02.736Z,100961.09
2023-03-27T09:50:44.459Z,100978.97
2023-03-27T09:53:39.776Z,100958.72
2023-03-27T09:56:19.256Z,100956.91
2023-03-27T09:58:54.398Z,100981.19
2023-03-27T10:01:30.322Z,100968.56
2023-03-27T10:04:17.671Z,100986.94
2023-03-27T10:06:51.389Z,100981.69
2023-03-27T10:09:29.827Z,100975.81
2023-03-27T10:12:17.429Z,100970.00
2023-03-27T10:14:52.542Z,100973.53
2023-03-27T10:17:28.202Z,100980.59
2023-03-27T10:20:09.074Z,100976.84
2023-03-27T10:22:41.367Z,100972.06
2023-03-27T10:25:17.551Z,101002.25
2023-03-27T10:27:54.245Z,100995.13
2023-03-27T10:30:40.536Z,100993.09
2023-03-27T10:33:31.412Z,100981.94
2023-03-27T10:36:40.686Z,100969.44
2023-03-27T10:39:15.787Z,100998.13
2023-03-27T10:42:09.468Z,101003.69
2023-03-27T10:44:42.292Z,101008.44
2023-03-27T10:47:19.834Z,101006.47
2023-03-27T10:49:56.601Z,101013.09
2023-03-27T10:52:45.744Z,101024.94
2023-03-27T10:55:25.989Z,101026.91
2023-03-27T10:57:57.578Z,101019.03
2023-03-27T11:00:36.906Z,101027.75
2023-03-27T11:03:16.065Z,101018.78
2023-03-27T11:05:48.652Z,101024.31
2023-03-27T11:08:35.031Z,101034.28
2023-03-27T11:11:09.643Z,101020.50
2023-03-27T11:13:46.840Z,101022.19
2023-03-27T11:16:21.659Z,101016.56
2023-03-27T11:19:23.490Z,101000.50
2023-03-27T11:22:15.406Z,101001.44
2023-03-27T11:24:51.709Z,101001.16
2023-03-27T11:27:26.746Z,100996.19
2023-03-27T11:30:04.768Z,100998.41
2023-03-27T11:32:52.856Z,101004.97
2023-03-27T11:35:25.764Z,100998.63
2023-03-27T11:38:17.096Z,101003.13
2023-03-27T11:40:47.642Z,100997.63
2023-03-27T11:43:18.253Z,100990.97
2023-03-27T11:45:54.841Z,101002.13
2023-03-27T11:48:49.082Z,101020.34
2023-03-27T11:51:26.389Z,101011.13
2023-03-27T11:54:24.244Z,100995.88
2023-03-27T11:56:59.289Z,101017.00
2023-03-27T11:59:59.943Z,101008.81
2023-03-27T12:02:58.160Z,101020.09
2023-03-27T12:05:38.533Z,101016.78
2023-03-27T12:08:18.103Z,101016.56
2023-03-27T12:10:52.796Z,101034.47
2023-03-27T12:14:17.696Z,101047.06
2023-03-27T12:17:08.851Z,101036.25
2023-03-27T12:20:22.424Z,101021.91
2023-03-27T12:23:03.800Z,101030.72
2023-03-27T12:26:11.196Z,101027.91
2023-03-27T12:29:23.400Z,101031.25
2023-03-27T12:32:11.323Z,101022.84
2023-03-27T12:34:53.066Z,101036.53
2023-03-27T12:37:27.376Z,101029.94
2023-03-27T12:39:59.036Z,101021.16
2023-03-27T12:42:49.537Z,101033.94
2023-03-27T12:45:23.568Z,101032.22
2023-03-27T12:48:20.281Z,101044.91
2023-03-27T12:50:58.096Z,101038.00
2023-03-27T12:53:48.789Z,101029.47
2023-03-27T12:56:33.378Z,101026.16
2023-03-27T12:59:04.405Z,101039.44
2023-03-27T13:01:55.439Z,101031.66
2023-03-27T13:04:50.563Z,101054.25
2023-03-27T13:07:27.518Z,101071.09
2023-03-27T13:10:46.386Z,101082.84
2023-03-27T13:13:55.815Z,101082.53
2023-03-27T13:16:34.953Z,101069.31
2023-03-27T13:19:22.970Z,101072.22
2023-03-27T13:22:17.533Z,101063.22
2023-03-27T13:25:08.366Z,101071.81
2023-03-27T13:27:47.679Z,101076.13
2023-03-27T13:30:44.006Z,101095.63
2023-03-27T13:33:45.049Z,101110.94
2023-03-27T13:36:20.037Z,101119.38
2023-03-27T13:39:24.890Z,101106.34
2023-03-27T13:42:11.246Z,101105.19
2023-03-27T13:44:57.845Z,101104.00
2023-03-27T13:47:55.249Z,101109.75
2023-03-27T13:50:47.322Z,101101.97
2023-03-27T13:53:33.508Z,101120.41
2023-03-27T13:56:31.744Z,101125.44
2023-03-27T13:59:43.274Z,101126.38
2023-03-27T14:02:41.333Z,101119.31
2023-03-27T14:05:25.226Z,101128.94
2023-03-27T14:08:13.164Z,101135.16
2023-03-27T14:11:23.800Z,101136.50
2023-03-27T14:14:16.489Z,101134.81
2023-03-27T14:17:10.912Z,101141.09
2023-03-27T14:20:20.180Z,101132.06
2023-03-27T14:22:54.564Z,101127.09
2023-03-27T14:25:31.483Z,101130.41
2023-03-27T14:28:29.113Z,101120.63
2023-03-27T14:31:02.230Z,101121.44
2023-03-27T14:34:02.829Z,101127.69
2023-03-27T14:36:34.560Z,101129.50
2023-03-27T14:39:14.769Z,101132.78
2023-03-27T14:41:47.115Z,101133.41
2023-03-27T14:44:19.179Z,101131.91
2023-03-27T14:46:49.004Z,101131.81
2023-03-27T14:49:20.792Z,101122.06
2023-03-27T14:51:55.811Z,101131.13
2023-03-27T14:54:54.648Z,101132.66
2023-03-27T14:57:27.988Z,101127.91
2023-03-27T15:00:00.431Z,101132.06
2023-03-27T15:02:32.649Z,101132.00
2023-03-27T15:05:08.589Z,101128.66
2023-03-27T15:07:38.292Z,101132.78
2023-03-27T15:10:36.057Z,101126.44
2023-03-27T15:13:27.738Z,101129.47
2023-03-27T15:16:00.950Z,101126.03
2023-03-27T15:18:36.087Z,101125.19
2023-03-27T15:21:07.117Z,101122.25
2023-03-27T15:23:42.459Z,101116.69
2023-03-27T15:26:19.078Z,101120.56
2023-03-27T15:28:55.048Z,101124.03
2023-03-27T15:31:25.713Z,101115.75
2023-03-27T15:34:02.180Z,101120.34
2023-03-27T15:36:34.298Z,101122.06
2023-03-27T15:39:04.096Z,101110.00
2023-03-27T15:41:42.715Z,101115.03
2023-03-27T15:44:14.274Z,101113.09
2023-03-27T15:46:50.634Z,101113.09
2023-03-27T15:49:28.567Z,101124.75
2023-03-27T15:51:58.002Z,101125.03
2023-03-27T15:54:29.173Z,101124.50
2023-03-27T15:57:09.746Z,101132.06
2023-03-27T15:59:53.056Z,101132.38
2023-03-27T16:02:26.420Z,101144.56
2023-03-27T16:04:57.142Z,101144.28
2023-03-27T16:07:30.086Z,101142.34
2023-03-27T16:10:02.322Z,101143.78
2023-03-27T16:12:33.810Z,101148.75
2023-03-27T16:15:05.677Z,101166.28
2023-03-27T16:17:41.185Z,101178.34
2023-03-27T16:20:34.997Z,101212.59
2023-03-27T16:23:04.166Z,101215.31
2023-03-27T16:25:32.159Z,101219.44
2023-03-27T16:28:00.120Z,101223.03
2023-03-27T16:30:31.965Z,101214.72
2023-03-27T16:33:01.604Z,101211.53
2023-03-27T16:35:31.888Z,101201.19
2023-03-27T16:38:00.156Z,101189.09
2023-03-27T16:40:28.295Z,101196.09
2023-03-27T16:42:56.518Z,101198.41
2023-03-27T16:45:24.376Z,101198.94
2023-03-27T16:47:53.257Z,101200.41
2023-03-27T16:50:25.502Z,101207.41
2023-03-27T16:52:53.786Z,101211.03
2023-03-27T16:55:21.910Z,101201.94
2023-03-27T16:57:52.334Z,101213.59
2023-03-27T17:00:21.265Z,101212.28
2023-03-27T17:02:49.192Z,101214.44
2023-03-27T17:05:17.259Z,101213.41
2023-03-27T17:07:48.143Z,101222.50
2023-03-27T17:10:16.364Z,101231.47
2023-03-27T17:12:44.298Z,101238.25
2023-03-27T17:15:12.846Z,101239.75
2023-03-27T17:17:40.889Z,101252.72
2023-03-27T17:20:09.925Z,101260.47
2023-03-27T17:22:37.919Z,101258.91
2023-03-27T17:25:09.936Z,101268.03
2023-03-27T17:27:38.136Z,101265.06
2023-03-27T17:30:07.169Z,101274.34
2023-03-27T17:32:35.172Z,101282.66
2023-03-27T17:35:04.453Z,101284.16
2023-03-27T17:37:32.362Z,101281.63
2023-03-27T17:40:00.669Z,101291.91
2023-03-27T17:42:29.931Z,101286.94
2023-03-27T17:44:57.810Z,101293.63
2023-03-27T17:47:25.944Z,101289.91
2023-03-27T17:49:54.594Z,101293.81
2023-03-27T17:52:23.408Z,101299.81
2023-03-27T17:54:51.423Z,101289.09
2023-03-27T17:57:19.388Z,101295.34
2023-03-27T17:59:48.632Z,101292.81
2023-03-27T18:02:18.326Z,101290.59
2023-03-27T18:04:48.680Z,101294.84
2023-03-27T18:07:16.528Z,101291.97
2023-03-27T18:09:44.448Z,101275.88
2023-03-27T18:12:12.369Z,101279.41
2023-03-27T18:14:41.537Z,101287.38
2023-03-27T18:17:11.310Z,101285.25
2023-03-27T18:19:39.157Z,101279.25
2023-03-27T18:22:07.129Z,101287.50
2023-03-27T18:24:34.990Z,101279.81
2023-03-27T18:27:02.852Z,101283.06
2023-03-27T18:29:32.763Z,101293.56
2023-03-27T18:32:00.766Z,101300.13
2023-03-27T18:34:30.127Z,101308.88
2023-03-27T18:36:58.010Z,101327.69
2023-03-27T18:39:27.281Z,101327.06
2023-03-27T18:41:58.559Z,101334.91
2023-03-27T18:44:26.555Z,101330.13
2023-03-27T18:46:54.713Z,101328.78
2023-03-27T18:49:25.162Z,101324.28
2023-03-27T18:51:54.898Z,101322.25
2023-03-27T18:54:22.910Z,101315.81
2023-03-27T18:56:51.996Z,101323.56
2023-03-27T18:59:20.038Z,101313.97
2023-03-27T19:01:47.993Z,101311.59
2023-03-27T19:04:17.264Z,101317.63
2023-03-27T19:06:46.186Z,101311.44
2023-03-27T19:09:16.031Z,101309.59
2023-03-27T19:11:44.784Z,101300.03
2023-03-27T19:14:42.285Z,101301.88
2023-03-27T19:17:28.790Z,101299.97
2023-03-27T19:20:19.555Z,101300.03
2023-03-27T19:23:07.804Z,101299.00
2023-03-27T19:25:41.043Z,101304.88
2023-03-27T19:28:08.942Z,101301.03
2023-03-27T19:30:36.863Z,101297.25
2023-03-27T19:33:04.832Z,101294.41
2023-03-27T19:35:32.802Z,101297.50
2023-03-27T19:38:00.685Z,101298.72
2023-03-27T19:40:28.584Z,101294.06
2023-03-27T19:42:57.847Z,101296.31
2023-03-27T19:45:26.368Z,101298.91
2023-03-27T19:47:54.409Z,101290.97
2023-03-27T19:50:22.682Z,101301.34
2023-03-27T19:53:09.325Z,101293.72
2023-03-27T19:55:37.372Z,101291.88
2023-03-27T19:58:06.655Z,101299.75
2023-03-27T20:00:38.305Z,101282.47
2023-03-27T20:03:10.355Z,101290.28
2023-03-27T20:05:40.458Z,101291.59
2023-03-27T20:08:08.370Z,101289.19
2023-03-27T20:10:36.258Z,101294.81
2023-03-27T20:13:04.166Z,101283.72
2023-03-27T20:15:35.281Z,101293.28
2023-03-27T20:18:04.761Z,101289.56
2023-03-27T20:20:32.747Z,101294.41
2023-03-27T20:23:02.927Z,101284.53
2023-03-27T20:25:33.672Z,101286.97
2023-03-27T20:28:01.851Z,101284.53
2023-03-27T20:30:30.619Z,101285.66
2023-03-27T20:33:03.044Z,101287.59
2023-03-27T20:35:32.949Z,101274.69
2023-03-27T20:38:04.756Z,101279.38
2023-03-27T20:43:16.736Z,101286.16
2023-03-27T20:45:45.760Z,101274.28
2023-03-27T20:48:18.010Z,101280.13
2023-03-27T20:50:51.275Z,101276.25
2023-03-27T20:53:26.290Z,101276.00
2023-03-27T20:56:00.102Z,101273.53
2023-03-27T20:58:29.203Z,101275.50
2023-03-27T21:00:57.182Z,101274.09
2023-03-27T21:03:26.583Z,101287.44
2023-03-27T21:05:54.467Z,101283.88
2023-03-27T21:08:22.346Z,101284.38
2023-03-27T21:10:53.975Z,101282.69
2023-03-27T21:13:22.182Z,101279.94
2023-03-27T21:15:50.180Z,101274.50
2023-03-27T21:18:19.034Z,101277.03
2023-03-27T21:20:48.245Z,101269.84
2023-03-27T21:23:16.200Z,101268.34
2023-03-27T21:25:45.269Z,101265.78
2023-03-27T21:28:13.666Z,101276.25
2023-03-27T21:30:47.083Z,101288.13
2023-03-27T21:33:16.823Z,101276.78
2023-03-27T21:35:48.629Z,101273.16
2023-03-27T21:38:17.940Z,101277.59
2023-03-27T21:40:46.791Z,101279.84
2023-03-27T21:43:15.124Z,101273.97
2023-03-27T21:45:43.092Z,101272.50
2023-03-27T21:48:11.289Z,101264.88
2023-03-27T21:50:39.309Z,101256.47
2023-03-27T21:53:08.712Z,101255.03
2023-03-27T21:55:37.415Z,101271.03
2023-03-27T21:58:05.795Z,101266.41
2023-03-27T22:00:33.995Z,101263.28
2023-03-27T22:03:01.939Z,101258.94
2023-03-27T22:05:29.896Z,101277.09
2023-03-27T22:07:58.633Z,101276.00
2023-03-27T22:10:27.925Z,101276.78
2023-03-27T22:12:55.981Z,101274.09
2023-03-27T22:15:23.888Z,101285.50
2023-03-27T22:17:51.803Z,101286.91
2023-03-27T22:20:20.325Z,101279.66
2023-03-27T22:22:48.545Z,101296.91
2023-03-27T22:25:16.543Z,101290.22
2023-03-27T22:27:46.458Z,101293.56
2023-03-27T22:30:15.052Z,101297.88
2023-03-27T22:32:43.216Z,101300.56
2023-03-27T22:35:12.077Z,101286.50
2023-03-27T22:37:41.058Z,101292.34
2023-03-27T22:40:09.917Z,101295.28
2023-03-27T22:42:37.976Z,101312.16
2023-03-27T22:45:08.264Z,101311.69
2023-03-27T22:47:36.233Z,101308.94
2023-03-27T22:50:06.411Z,101320.78
2023-03-27T22:52:34.421Z,101311.84
2023-03-27T22:55:02.301Z,101309.44
2023-03-27T22:57:30.259Z,101311.03
2023-03-27T22:59:58.212Z,101316.03
2023-03-27T23:02:27.675Z,101308.59
2023-03-27T23:04:55.961Z,101323.84
2023-03-27T23:07:24.124Z,101317.38
2023-03-27T23:09:52.108Z,101325.78
2023-03-27T23:12:20.005Z,101309.03
2023-03-27T23:14:47.886Z,101317.47
2023-03-27T23:17:15.868Z,101317.19
2023-03-27T23:19:45.141Z,101318.63
2023-03-27T23:22:13.016Z,101322.34
2023-03-27T23:24:40.885Z,101349.50
2023-03-27T23:27:09.358Z,101337.50
2023-03-27T23:29:37.291Z,101339.16
2023-03-27T23:32:05.846Z,101334.13
2023-03-27T23:34:33.748Z,101336.38
2023-03-27T23:37:02.971Z,101340.34
2023-03-27T23:39:30.874Z,101352.06
2023-03-27T23:41:58.783Z,101346.97
2023-03-27T23:44:26.755Z,101354.78
2023-03-27T23:46:54.622Z,101350.53
2023-03-27T23:49:22.465Z,101352.94
2023-03-27T23:51:50.508Z,101371.31
2023-03-27T23:54:19.729Z,101364.56
2023-03-27T23:56:47.619Z,101370.94
2023-03-27T23:59:15.803Z,101379.25
